sensor_id;sensor_type;location;lat;lon;timestamp;pressure;altitude;pressure_sealevel;temperature;humidity
11172;BME280;5642;50.830;12.082;2024-01-15T00:00:29;97764.72;;;6.25;46.18
11172;BME280;5642;50.830;12.082;2024-01-15T00:03:16;97755.56;;;6.17;46.05
11172;BME280;5642;50.830;12.082;2024-01-15T00:05:43;97753.88;;;6.16;46.07
11172;BME280;5642;50.830;12.082;2024-01-15T00:08:11;97752.06;;;6.18;46.11
11172;BME280;5642;50.830;12.082;2024-01-15T00:10:39;97755.47;;;6.18;46.33
11172;BME280;5642;50.830;12.082;2024-01-15T00:13:07;97741.72;;;6.16;46.33
11172;BME280;5642;50.830;12.082;2024-01-15T00:15:38;97744.03;;;6.24;46.57
11172;BME280;5642;50.830;12.082;2024-01-15T00:18:07;97760.38;;;6.26;46.40
11172;BME280;5642;50.830;12.082;2024-01-15T00:20:33;97757.56;;;6.32;46.38
11172;BME280;5642;50.830;12.082;2024-01-15T00:23:00;97748.72;;;6.36;45.93
11172;BME280;5642;50.830;12.082;2024-01-15T00:25:26;97744.31;;;6.38;46.42
11172;BME280;5642;50.830;12.082;2024-01-15T00:27:53;97747.59;;;6.42;45.86
11172;BME280;5642;50.830;12.082;2024-01-15T00:30:19;97751.06;;;6.42;46.30
11172;BME280;5642;50.830;12.082;2024-01-15T00:32:45;97743.44;;;6.38;45.73
11172;BME280;5642;50.830;12.082;2024-01-15T00:35:27;97729.72;;;6.34;46.02
11172;BME280;5642;50.830;12.082;2024-01-15T00:37:53;97751.38;;;6.35;45.86
11172;BME280;5642;50.830;12.082;2024-01-15T00:40:21;97735.81;;;6.33;46.13
11172;BME280;5642;50.830;12.082;2024-01-15T00:42:48;97696.19;;;6.06;46.13
11172;BME280;5642;50.830;12.082;2024-01-15T00:45:14;97747.16;;;6.32;46.42
11172;BME280;5642;50.830;12.082;2024-01-15T00:47:58;97743.50;;;6.36;46.32
11172;BME280;5642;50.830;12.082;2024-01-15T00:50:26;97734.66;;;6.40;46.29
11172;BME280;5642;50.830;12.082;2024-01-15T00:53:00;97745.78;;;6.44;46.15
11172;BME280;5642;50.830;12.082;2024-01-15T00:55:31;97741.25;;;6.49;45.81
11172;BME280;5642;50.830;12.082;2024-01-15T00:57:58;97730.97;;;6.46;46.21
11172;BME280;5642;50.830;12.082;2024-01-15T01:00:24;97729.81;;;6.53;46.13
11172;BME280;5642;50.830;12.082;2024-01-15T01:02:50;97729.34;;;6.63;46.01
11172;BME280;5642;50.830;12.082;2024-01-15T01:05:17;97738.63;;;6.69;45.86
11172;BME280;5642;50.830;12.082;2024-01-15T01:07:44;97738.47;;;6.74;46.33
11172;BME280;5642;50.830;12.082;2024-01-15T01:10:22;97726.38;;;6.73;46.30
11172;BME280;5642;50.830;12.082;2024-01-15T01:12:49;97725.63;;;6.69;46.52
11172;BME280;5642;50.830;12.082;2024-01-15T01:15:16;97732.34;;;6.75;46.20
11172;BME280;5642;50.830;12.082;2024-01-15T01:17:42;97722.69;;;6.77;45.85
11172;BME280;5642;50.830;12.082;2024-01-15T01:20:09;97724.47;;;6.76;45.87
11172;BME280;5642;50.830;12.082;2024-01-15T01:22:36;97724.66;;;6.72;45.84
11172;BME280;5642;50.830;12.082;2024-01-15T01:25:02;97722.34;;;6.65;46.02
11172;BME280;5642;50.830;12.082;2024-01-15T01:27:29;97710.56;;;6.57;46.24
11172;BME280;5642;50.830;12.082;2024-01-15T01:29:55;97723.56;;;6.57;46.09
11172;BME280;5642;50.830;12.082;2024-01-15T01:32:21;97717.88;;;6.47;46.06
11172;BME280;5642;50.830;12.082;2024-01-15T01:34:48;97712.84;;;6.44;46.05
11172;BME280;5642;50.830;12.082;2024-01-15T01:37:14;97733.38;;;6.50;46.30
11172;BME280;5642;50.830;12.082;2024-01-15T01:39:41;97731.41;;;6.55;46.01
11172;BME280;5642;50.830;12.082;2024-01-15T01:42:08;97708.16;;;6.52;45.90
11172;BME280;5642;50.830;12.082;2024-01-15T01:44:34;97711.53;;;6.54;46.38
11172;BME280;5642;50.830;12.082;2024-01-15T01:47:01;97716.34;;;6.63;46.47
11172;BME280;5642;50.830;12.082;2024-01-15T01:49:28;97701.13;;;6.54;45.85
11172;BME280;5642;50.830;12.082;2024-01-15T01:52:00;97709.66;;;6.58;45.83
11172;BME280;5642;50.830;12.082;2024-01-15T01:54:29;97720.84;;;6.60;46.30
11172;BME280;5642;50.830;12.082;2024-01-15T01:56:59;97706.91;;;6.61;46.08
11172;BME280;5642;50.830;12.082;2024-01-15T01:59:27;97730.78;;;6.71;45.92
11172;BME280;5642;50.830;12.082;2024-01-15T02:01:55;97719.47;;;6.72;46.28
11172;BME280;5642;50.830;12.082;2024-01-15T02:04:23;97721.94;;;6.75;46.16
11172;BME280;5642;50.830;12.082;2024-01-15T02:06:51;97734.03;;;6.76;46.13
11172;BME280;5642;50.830;12.082;2024-01-15T02:09:18;97714.25;;;6.72;46.06
11172;BME280;5642;50.830;12.082;2024-01-15T02:11:48;97712.50;;;6.72;46.29
11172;BME280;5642;50.830;12.082;2024-01-15T02:14:14;97717.72;;;6.72;46.34
11172;BME280;5642;50.830;12.082;2024-01-15T02:16:41;97707.50;;;6.67;45.91
11172;BME280;5642;50.830;12.082;2024-01-15T02:19:15;97718.63;;;6.71;46.36
11172;BME280;5642;50.830;12.082;2024-01-15T02:21:44;97722.28;;;6.67;45.95
11172;BME280;5642;50.830;12.082;2024-01-15T02:24:11;97711.13;;;6.63;45.91
11172;BME280;5642;50.830;12.082;2024-01-15T02:26:41;97711.59;;;6.53;46.42
11172;BME280;5642;50.830;12.082;2024-01-15T02:29:07;97723.69;;;6.54;46.20
11172;BME280;5642;50.830;12.082;2024-01-15T02:31:36;97720.31;;;6.52;45.96
11172;BME280;5642;50.830;12.082;2024-01-15T02:34:15;97709.38;;;6.44;45.89
11172;BME280;5642;50.830;12.082;2024-01-15T02:36:41;97696.44;;;6.42;46.10
11172;BME280;5642;50.830;12.082;2024-01-15T02:39:09;97716.53;;;6.39;46.12
11172;BME280;5642;50.830;12.082;2024-01-15T02:41:35;97723.50;;;6.38;46.28
11172;BME280;5642;50.830;12.082;2024-01-15T02:44:04;97702.16;;;6.30;46.01
11172;BME280;5642;50.830;12.082;2024-01-15T02:46:30;97712.22;;;6.17;46.10
11172;BME280;5642;50.830;12.082;2024-01-15T02:48:56;97712.28;;;6.16;46.24
11172;BME280;5642;50.830;12.082;2024-01-15T02:58:57;97708.97;;;5.90;46.59
11172;BME280;5642;50.830;12.082;2024-01-15T03:01:24;97710.66;;;5.92;46.20
11172;BME280;5642;50.830;12.082;2024-01-15T03:03:51;97726.19;;;5.93;46.28
11172;BME280;5642;50.830;12.082;2024-01-15T03:06:17;97703.91;;;5.87;45.93
11172;BME280;5642;50.830;12.082;2024-01-15T03:08:43;97700.31;;;5.90;46.18
11172;BME280;5642;50.830;12.082;2024-01-15T03:11:10;97705.22;;;5.98;46.26
11172;BME280;5642;50.830;12.082;2024-01-15T03:13:37;97704.44;;;5.96;45.91
11172;BME280;5642;50.830;12.082;2024-01-15T03:16:06;97679.31;;;5.96;46.37
11172;BME280;5642;50.830;12.082;2024-01-15T03:18:32;97702.75;;;5.95;45.99
11172;BME280;5642;50.830;12.082;2024-01-15T03:20:58;97703.66;;;5.94;46.01
11172;BME280;5642;50.830;12.082;2024-01-15T03:23:27;97702.63;;;5.98;46.08
11172;BME280;5642;50.830;12.082;2024-01-15T03:25:53;97648.03;;;5.76;45.95
11172;BME280;5642;50.830;12.082;2024-01-15T03:28:23;97713.75;;;6.01;46.03
11172;BME280;5642;50.830;12.082;2024-01-15T03:30:52;97718.94;;;6.01;46.08
11172;BME280;5642;50.830;12.082;2024-01-15T03:33:18;97717.31;;;5.99;45.77
11172;BME280;5642;50.830;12.082;2024-01-15T03:35:46;97720.81;;;5.98;46.11
11172;BME280;5642;50.830;12.082;2024-01-15T03:38:12;97709.66;;;5.96;45.84
11172;BME280;5642;50.830;12.082;2024-01-15T03:40:38;97712.06;;;6.00;46.11
11172;BME280;5642;50.830;12.082;2024-01-15T03:43:08;97706.25;;;5.94;46.30
11172;BME280;5642;50.830;12.082;2024-01-15T03:45:34;97706.97;;;5.97;46.06
11172;BME280;5642;50.830;12.082;2024-01-15T03:48:04;97720.63;;;6.02;46.09
11172;BME280;5642;50.830;12.082;2024-01-15T03:50:30;97695.22;;;5.87;46.14
11172;BME280;5642;50.830;12.082;2024-01-15T03:52:57;97702.88;;;5.92;45.57
11172;BME280;5642;50.830;12.082;2024-01-15T03:55:23;97715.69;;;5.96;46.22
11172;BME280;5642;50.830;12.082;2024-01-15T03:57:50;97714.06;;;5.94;45.78
11172;BME280;5642;50.830;12.082;2024-01-15T04:00:16;97701.38;;;5.84;45.86
11172;BME280;5642;50.830;12.082;2024-01-15T04:02:45;97696.44;;;5.78;45.93
11172;BME280;5642;50.830;12.082;2024-01-15T04:05:11;97682.34;;;5.62;45.90
11172;BME280;5642;50.830;12.082;2024-01-15T04:07:38;97691.69;;;5.68;45.83
11172;BME280;5642;50.830;12.082;2024-01-15T04:10:04;97629.16;;;5.29;45.81
11172;BME280;5642;50.830;12.082;2024-01-15T04:12:30;97686.84;;;5.59;45.88
11172;BME280;5642;50.830;12.082;2024-01-15T04:14:57;97676.00;;;5.47;46.23
11172;BME280;5642;50.830;12.082;2024-01-15T04:17:26;97689.66;;;5.53;46.13
11172;BME280;5642;50.830;12.082;2024-01-15T04:19:59;97689.78;;;5.49;46.15
11172;BME280;5642;50.830;12.082;2024-01-15T04:22:31;97695.88;;;5.48;46.00
11172;BME280;5642;50.830;12.082;2024-01-15T04:24:57;97698.38;;;5.51;45.84
11172;BME280;5642;50.830;12.082;2024-01-15T04:27:23;97694.13;;;5.49;46.07
11172;BME280;5642;50.830;12.082;2024-01-15T04:29:51;97692.63;;;5.43;45.92
11172;BME280;5642;50.830;12.082;2024-01-15T04:32:18;97711.75;;;5.41;46.21
11172;BME280;5642;50.830;12.082;2024-01-15T04:34:45;97708.44;;;5.37;46.00
11172;BME280;5642;50.830;12.082;2024-01-15T04:37:15;97705.09;;;5.34;45.70
11172;BME280;5642;50.830;12.082;2024-01-15T04:39:41;97714.84;;;5.27;46.12
11172;BME280;5642;50.830;12.082;2024-01-15T04:42:09;97710.69;;;5.23;46.05
11172;BME280;5642;50.830;12.082;2024-01-15T04:44:48;97697.44;;;5.07;45.86
11172;BME280;5642;50.830;12.082;2024-01-15T04:47:19;97663.81;;;4.81;46.16
11172;BME280;5642;50.830;12.082;2024-01-15T04:49:45;97722.16;;;5.18;46.09
11172;BME280;5642;50.830;12.082;2024-01-15T04:52:12;97710.13;;;5.15;45.89
11172;BME280;5642;50.830;12.082;2024-01-15T04:54:39;97730.66;;;5.21;45.75
11172;BME280;5642;50.830;12.082;2024-01-15T04:57:07;97720.31;;;5.20;45.93
11172;BME280;5642;50.830;12.082;2024-01-15T04:59:34;97713.75;;;5.11;46.09
11172;BME280;5642;50.830;12.082;2024-01-15T05:02:00;97744.09;;;5.32;45.55
11172;BME280;5642;50.830;12.082;2024-01-15T05:04:44;97734.63;;;5.31;45.67
11172;BME280;5642;50.830;12.082;2024-01-15T05:07:17;97730.03;;;5.38;46.06
11172;BME280;5642;50.830;12.082;2024-01-15T05:09:51;97720.47;;;5.40;45.76
11172;BME280;5642;50.830;12.082;2024-01-15T05:12:27;97730.38;;;5.52;45.72
11172;BME280;5642;50.830;12.082;2024-01-15T05:14:53;97724.16;;;5.56;45.88
11172;BME280;5642;50.830;12.082;2024-01-15T05:17:38;97722.25;;;5.61;45.82
11172;BME280;5642;50.830;12.082;2024-01-15T05:20:05;97716.34;;;5.56;46.05
11172;BME280;5642;50.830;12.082;2024-01-15T05:22:31;97719.00;;;5.55;45.91
11172;BME280;5642;50.830;12.082;2024-01-15T05:25:12;97704.69;;;5.44;45.84
11172;BME280;5642;50.830;12.082;2024-01-15T05:27:48;97703.19;;;5.39;46.07
11172;BME280;5642;50.830;12.082;2024-01-15T05:30:19;97723.88;;;5.40;46.05
11172;BME280;5642;50.830;12.082;2024-01-15T05:33:01;97719.81;;;5.33;46.25
11172;BME280;5642;50.830;12.082;2024-01-15T05:35:32;97713.06;;;5.29;45.99
11172;BME280;5642;50.830;12.082;2024-01-15T05:38:11;97725.81;;;5.35;46.47
11172;BME280;5642;50.830;12.082;2024-01-15T05:40:38;97722.31;;;5.36;46.19
11172;BME280;5642;50.830;12.082;2024-01-15T05:43:07;97706.84;;;5.33;46.33
11172;BME280;5642;50.830;12.082;2024-01-15T05:45:38;97711.75;;;5.41;46.18
11172;BME280;5642;50.830;12.082;2024-01-15T05:48:07;97710.78;;;5.43;46.37
11172;BME280;5642;50.830;12.082;2024-01-15T05:50:36;97705.66;;;5.42;46.23
11172;BME280;5642;50.830;12.082;2024-01-15T05:53:13;97696.44;;;5.33;46.15
11172;BME280;5642;50.830;12.082;2024-01-15T05:56:12;97689.38;;;5.15;46.26
11172;BME280;5642;50.830;12.082;2024-01-15T05:58:48;97683.88;;;4.99;46.41
11172;BME280;5642;50.830;12.082;2024-01-15T06:01:16;97663.03;;;4.79;46.29
11172;BME280;5642;50.830;12.082;2024-01-15T06:03:43;97675.81;;;4.84;46.45
11172;BME280;5642;50.830;12.082;2024-01-15T06:06:11;97669.09;;;4.78;46.68
11172;BME280;5642;50.830;12.082;2024-01-15T06:08:41;97685.19;;;4.88;46.82
11172;BME280;5642;50.830;12.082;2024-01-15T06:11:08;97654.56;;;4.74;46.48
11172;BME280;5642;50.830;12.082;2024-01-15T06:13:47;97675.53;;;4.91;46.53
11172;BME280;5642;50.830;12.082;2024-01-15T06:16:24;97672.50;;;5.03;46.32
11172;BME280;5642;50.830;12.082;2024-01-15T06:19:02;97675.78;;;5.08;46.16
11172;BME280;5642;50.830;12.082;2024-01-15T06:21:48;97673.50;;;5.23;46.33
11172;BME280;5642;50.830;12.082;2024-01-15T06:24:32;97677.63;;;5.28;46.65
11172;BME280;5642;50.830;12.082;2024-01-15T06:27:22;97677.13;;;5.40;46.31
11172;BME280;5642;50.830;12.082;2024-01-15T06:30:07;97668.41;;;5.43;46.25
11172;BME280;5642;50.830;12.082;2024-01-15T06:32:51;97632.59;;;5.29;46.36
11172;BME280;5642;50.830;12.082;2024-01-15T06:35:19;97665.50;;;5.50;46.41
11172;BME280;5642;50.830;12.082;2024-01-15T06:37:46;97670.34;;;5.60;45.91
11172;BME280;5642;50.830;12.082;2024-01-15T06:40:13;97674.66;;;5.61;46.16
11172;BME280;5642;50.830;12.082;2024-01-15T06:43:03;97683.19;;;5.63;46.10
11172;BME280;5642;50.830;12.082;2024-01-15T06:45:45;97670.34;;;5.60;46.08
11172;BME280;5642;50.830;12.082;2024-01-15T06:48:24;97683.09;;;5.66;46.30
11172;BME280;5642;50.830;12.082;2024-01-15T06:51:23;97651.88;;;5.45;46.11
11172;BME280;5642;50.830;12.082;2024-01-15T06:54:09;97688.53;;;5.60;46.58
11172;BME280;5642;50.830;12.082;2024-01-15T06:56:57;97668.34;;;5.44;46.20
11172;BME280;5642;50.830;12.082;2024-01-15T06:59:36;97677.94;;;5.42;46.17
11172;BME280;5642;50.830;12.082;2024-01-15T07:02:20;97665.53;;;5.27;46.10
11172;BME280;5642;50.830;12.082;2024-01-15T07:05:04;97692.25;;;5.31;46.54
11172;BME280;5642;50.830;12.082;2024-01-15T07:07:32;97621.34;;;4.84;46.14
11172;BME280;5642;50.830;12.082;2024-01-15T07:10:19;97657.03;;;5.00;46.28
11172;BME280;5642;50.830;12.082;2024-01-15T07:12:46;97692.53;;;5.23;46.05
11172;BME280;5642;50.830;12.082;2024-01-15T07:15:14;97687.34;;;5.23;46.38
11172;BME280;5642;50.830;12.082;2024-01-15T07:18:00;97687.53;;;5.19;46.30
11172;BME280;5642;50.830;12.082;2024-01-15T07:20:30;97633.19;;;4.91;46.15
11172;BME280;5642;50.830;12.082;2024-01-15T07:22:57;97694.22;;;5.24;46.35
11172;BME280;5642;50.830;12.082;2024-01-15T07:25:24;97695.72;;;5.30;46.19
11172;BME280;5642;50.830;12.082;2024-01-15T07:27:57;97643.97;;;5.03;46.10
11172;BME280;5642;50.830;12.082;2024-01-15T07:30:51;97688.97;;;5.26;46.27
11172;BME280;5642;50.830;12.082;2024-01-15T07:33:19;97634.09;;;4.90;45.81
11172;BME280;5642;50.830;12.082;2024-01-15T07:35:46;97662.06;;;5.05;45.76
11172;BME280;5642;50.830;12.082;2024-01-15T07:38:20;97639.06;;;4.96;45.88
11172;BME280;5642;50.830;12.082;2024-01-15T07:40:46;97689.75;;;5.28;45.92
11172;BME280;5642;50.830;12.082;2024-01-15T07:43:20;97618.59;;;4.88;45.67
11172;BME280;5642;50.830;12.082;2024-01-15T07:46:02;97657.31;;;5.16;45.65
11172;BME280;5642;50.830;12.082;2024-01-15T07:48:31;97696.84;;;5.46;45.76
11172;BME280;5642;50.830;12.082;2024-01-15T07:50:58;97665.38;;;5.32;45.38
11172;BME280;5642;50.830;12.082;2024-01-15T07:53:24;97665.56;;;5.49;45.60
11172;BME280;5642;50.830;12.082;2024-01-15T07:55:51;97644.53;;;5.33;45.54
11172;BME280;5642;50.830;12.082;2024-01-15T07:58:23;97665.41;;;5.54;45.73
11172;BME280;5642;50.830;12.082;2024-01-15T08:00:56;97687.63;;;5.82;45.28
11172;BME280;5642;50.830;12.082;2024-01-15T08:03:26;97692.06;;;6.02;45.48
11172;BME280;5642;50.830;12.082;2024-01-15T08:05:59;97700.38;;;6.10;45.40
11172;BME280;5642;50.830;12.082;2024-01-15T08:08:43;97699.88;;;6.22;45.46
11172;BME280;5642;50.830;12.082;2024-01-15T08:11:20;97628.59;;;5.86;45.29
11172;BME280;5642;50.830;12.082;2024-01-15T08:14:05;97702.88;;;6.34;45.65
11172;BME280;5642;50.830;12.082;2024-01-15T08:16:47;97710.28;;;6.43;45.75
11172;BME280;5642;50.830;12.082;2024-01-15T08:19:22;97697.09;;;6.47;45.31
11172;BME280;5642;50.830;12.082;2024-01-15T08:21:50;97703.88;;;6.51;45.29
11172;BME280;5642;50.830;12.082;2024-01-15T08:24:34;97681.47;;;6.47;45.20
11172;BME280;5642;50.830;12.082;2024-01-15T08:34:42;97695.16;;;6.52;45.23
11172;BME280;5642;50.830;12.082;2024-01-15T08:37:27;97657.75;;;6.35;45.43
11172;BME280;5642;50.830;12.082;2024-01-15T08:40:53;97588.69;;;5.88;45.76
11172;BME280;5642;50.830;12.082;2024-01-15T08:43:32;97586.94;;;5.67;45.63
11172;BME280;5642;50.830;12.082;2024-01-15T08:46:05;97643.78;;;5.97;45.80
11172;BME280;5642;50.830;12.082;2024-01-15T08:48:49;97694.69;;;6.22;45.82
11172;BME280;5642;50.830;12.082;2024-01-15T08:51:33;97661.41;;;6.10;45.61
11172;BME280;5642;50.830;12.082;2024-01-15T08:54:01;97634.94;;;6.01;45.56
11172;BME280;5642;50.830;12.082;2024-01-15T08:56:35;97609.59;;;5.84;45.33
11172;BME280;5642;50.830;12.082;2024-01-15T08:59:01;97684.28;;;6.43;45.41
11172;BME280;5642;50.830;12.082;2024-01-15T09:01:28;97672.19;;;6.42;45.39
11172;BME280;5642;50.830;12.082;2024-01-15T09:03:55;97682.31;;;6.48;45.25
11172;BME280;5642;50.830;12.082;2024-01-15T09:06:46;97688.09;;;6.54;45.22
11172;BME280;5642;50.830;12.082;2024-01-15T09:09:18;97619.94;;;6.27;45.07
11172;BME280;5642;50.830;12.082;2024-01-15T09:12:06;97661.13;;;6.57;45.08
11172;BME280;5642;50.830;12.082;2024-01-15T09:14:36;97610.09;;;6.34;45.07
11172;BME280;5642;50.830;12.082;2024-01-15T09:17:05;97561.47;;;6.17;45.11
11172;BME280;5642;50.830;12.082;2024-01-15T09:19:34;97606.47;;;6.38;44.84
11172;BME280;5642;50.830;12.082;2024-01-15T09:22:19;97670.38;;;6.83;45.28
11172;BME280;5642;50.830;12.082;2024-01-15T09:24:46;97679.28;;;6.97;44.88
11172;BME280;5642;50.830;12.082;2024-01-15T09:27:19;97613.69;;;6.71;44.69
11172;BME280;5642;50.830;12.082;2024-01-15T09:29:51;97639.88;;;7.05;44.93
11172;BME280;5642;50.830;12.082;2024-01-15T09:32:23;97605.91;;;6.89;44.65
11172;BME280;5642;50.830;12.082;2024-01-15T09:35:06;97659.56;;;7.31;44.03
11172;BME280;5642;50.830;12.082;2024-01-15T09:37:34;97657.41;;;7.39;44.38
11172;BME280;5642;50.830;12.082;2024-01-15T09:40:14;97575.00;;;7.19;43.77
11172;BME280;5642;50.830;12.082;2024-01-15T09:42:51;97630.59;;;7.37;44.17
11172;BME280;5642;50.830;12.082;2024-01-15T09:45:30;97624.19;;;7.44;44.25
11172;BME280;5642;50.830;12.082;2024-01-15T09:48:02;97620.69;;;7.45;44.65
11172;BME280;5642;50.830;12.082;2024-01-15T09:50:31;97629.66;;;7.57;44.36
11172;BME280;5642;50.830;12.082;2024-01-15T09:53:10;97568.31;;;7.32;44.42
11172;BME280;5642;50.830;12.082;2024-01-15T09:55:50;97565.88;;;7.29;44.35
11172;BME280;5642;50.830;12.082;2024-01-15T09:58:18;97595.44;;;7.64;44.17
11172;BME280;5642;50.830;12.082;2024-01-15T10:00:47;97653.28;;;8.24;44.10
11172;BME280;5642;50.830;12.082;2024-01-15T10:03:41;97532.50;;;7.72;43.92
11172;BME280;5642;50.830;12.082;2024-01-15T10:06:11;97635.34;;;8.52;44.03
11172;BME280;5642;50.830;12.082;2024-01-15T10:09:20;97583.03;;;8.21;43.71
11172;BME280;5642;50.830;12.082;2024-01-15T10:12:14;97644.09;;;8.51;43.60
11172;BME280;5642;50.830;12.082;2024-01-15T10:14:42;97648.88;;;8.43;43.76
11172;BME280;5642;50.830;12.082;2024-01-15T10:17:14;97638.97;;;8.33;44.06
11172;BME280;5642;50.830;12.082;2024-01-15T10:19:59;97595.44;;;7.99;44.05
11172;BME280;5642;50.830;12.082;2024-01-15T10:22:29;97638.00;;;7.99;44.54
11172;BME280;5642;50.830;12.082;2024-01-15T10:24:57;97623.13;;;7.84;44.47
11172;BME280;5642;50.830;12.082;2024-01-15T10:27:33;97627.09;;;7.74;44.41
11172;BME280;5642;50.830;12.082;2024-01-15T10:30:18;97636.94;;;7.67;44.72
11172;BME280;5642;50.830;12.082;2024-01-15T10:32:57;97562.25;;;7.32;44.45
11172;BME280;5642;50.830;12.082;2024-01-15T10:35:34;97532.53;;;7.00;44.74
11172;BME280;5642;50.830;12.082;2024-01-15T10:38:05;97601.06;;;7.38;44.75
11172;BME280;5642;50.830;12.082;2024-01-15T10:40:32;97590.34;;;7.44;44.76
11172;BME280;5642;50.830;12.082;2024-01-15T10:43:09;97628.78;;;8.61;44.62
11172;BME280;5642;50.830;12.082;2024-01-15T10:45:38;97468.00;;;9.21;44.65
11172;BME280;5642;50.830;12.082;2024-01-15T10:48:11;97491.78;;;10.63;44.28
11172;BME280;5642;50.830;12.082;2024-01-15T10:50:47;97501.84;;;12.16;44.25
11172;BME280;5642;50.830;12.082;2024-01-15T10:53:23;97586.13;;;13.86;43.79
11172;BME280;5642;50.830;12.082;2024-01-15T10:56:11;97500.88;;;14.68;43.65
11172;BME280;5642;50.830;12.082;2024-01-15T10:58:44;97529.41;;;15.61;43.50
11172;BME280;5642;50.830;12.082;2024-01-15T11:01:19;97570.56;;;16.69;43.45
11172;BME280;5642;50.830;12.082;2024-01-15T11:03:55;97571.69;;;17.56;43.07
11172;BME280;5642;50.830;12.082;2024-01-15T11:06:44;97470.59;;;17.82;42.65
11172;BME280;5642;50.830;12.082;2024-01-15T11:09:16;97471.56;;;18.66;42.80
11172;BME280;5642;50.830;12.082;2024-01-15T11:11:47;97485.47;;;19.32;42.29
11172;BME280;5642;50.830;12.082;2024-01-15T11:14:45;97565.13;;;20.48;42.22
11172;BME280;5642;50.830;12.082;2024-01-15T11:17:13;97501.56;;;20.63;42.28
11172;BME280;5642;50.830;12.082;2024-01-15T11:19:46;97489.28;;;20.96;41.69
11172;BME280;5642;50.830;12.082;2024-01-15T11:22:48;97545.91;;;21.48;41.54
11172;BME280;5642;50.830;12.082;2024-01-15T11:25:18;97486.31;;;21.07;41.65
11172;BME280;5642;50.830;12.082;2024-01-15T11:27:50;97524.91;;;21.37;41.52
11172;BME280;5642;50.830;12.082;2024-01-15T11:30:25;97516.53;;;21.32;41.13
11172;BME280;5642;50.830;12.082;2024-01-15T11:33:34;97546.56;;;21.50;40.94
11172;BME280;5642;50.830;12.082;2024-01-15T11:36:07;97518.25;;;21.41;41.08
11172;BME280;5642;50.830;12.082;2024-01-15T11:38:56;97568.94;;;21.23;40.87
11172;BME280;5642;50.830;12.082;2024-01-15T11:41:49;97560.16;;;21.05;40.63
11172;BME280;5642;50.830;12.082;2024-01-15T11:44:18;97536.03;;;20.73;40.39
11172;BME280;5642;50.830;12.082;2024-01-15T11:46:58;97553.06;;;20.62;40.31
11172;BME280;5642;50.830;12.082;2024-01-15T11:49:58;97502.38;;;19.31;39.99
11172;BME280;5642;50.830;12.082;2024-01-15T11:52:37;97532.44;;;18.38;40.47
11172;BME280;5642;50.830;12.082;2024-01-15T11:55:41;97572.50;;;17.38;40.59
11172;BME280;5642;50.830;12.082;2024-01-15T11:58:17;97575.78;;;16.07;41.46
11172;BME280;5642;50.830;12.082;2024-01-15T12:00:47;97565.78;;;15.13;41.37
11172;BME280;5642;50.830;12.082;2024-01-15T12:03:27;97565.91;;;14.21;41.72
11172;BME280;5642;50.830;12.082;2024-01-15T12:05:56;97545.63;;;13.41;41.81
11172;BME280;5642;50.830;12.082;2024-01-15T12:08:39;97544.13;;;12.87;41.69
11172;BME280;5642;50.830;12.082;2024-01-15T12:11:11;97510.03;;;12.37;41.21
11172;BME280;5642;50.830;12.082;2024-01-15T12:14:02;97479.91;;;11.79;40.90
11172;BME280;5642;50.830;12.082;2024-01-15T12:16:34;97551.47;;;11.94;40.73
11172;BME280;5642;50.830;12.082;2024-01-15T12:19:06;97481.44;;;11.29;40.67
11172;BME280;5642;50.830;12.082;2024-01-15T12:21:33;97512.34;;;11.10;40.75
11172;BME280;5642;50.830;12.082;2024-01-15T12:24:22;97569.00;;;10.98;40.70
11172;BME280;5642;50.830;12.082;2024-01-15T12:26:48;97546.94;;;10.60;41.12
11172;BME280;5642;50.830;12.082;2024-01-15T12:29:22;97566.38;;;10.42;41.08
11172;BME280;5642;50.830;12.082;2024-01-15T12:31:50;97544.31;;;10.16;41.41
11172;BME280;5642;50.830;12.082;2024-01-15T12:34:32;97551.97;;;10.05;41.38
11172;BME280;5642;50.830;12.082;2024-01-15T12:37:01;97438.50;;;9.19;41.42
11172;BME280;5642;50.830;12.082;2024-01-15T12:39:43;97519.78;;;9.45;41.08
11172;BME280;5642;50.830;12.082;2024-01-15T12:42:31;97521.94;;;9.52;41.33
11172;BME280;5642;50.830;12.082;2024-01-15T12:45:02;97529.59;;;9.71;41.04
11172;BME280;5642;50.830;12.082;2024-01-15T12:47:42;97461.91;;;9.21;41.04
11172;BME280;5642;50.830;12.082;2024-01-15T12:50:10;97493.38;;;9.49;40.88
11172;BME280;5642;50.830;12.082;2024-01-15T12:52:40;97490.69;;;9.51;41.01
11172;BME280;5642;50.830;12.082;2024-01-15T12:55:11;97560.41;;;10.10;40.78
11172;BME280;5642;50.830;12.082;2024-01-15T12:57:54;97540.97;;;10.00;40.74
11172;BME280;5642;50.830;12.082;2024-01-15T13:01:03;97551.19;;;9.89;40.81
11172;BME280;5642;50.830;12.082;2024-01-15T13:03:49;97560.06;;;9.86;40.90
11172;BME280;5642;50.830;12.082;2024-01-15T13:06:21;97557.91;;;9.78;41.32
11172;BME280;5642;50.830;12.082;2024-01-15T13:08:48;97554.38;;;9.64;40.95
11172;BME280;5642;50.830;12.082;2024-01-15T13:11:16;97565.69;;;9.64;41.29
11172;BME280;5642;50.830;12.082;2024-01-15T13:13:46;97541.84;;;9.39;41.03
11172;BME280;5642;50.830;12.082;2024-01-15T13:16:17;97499.69;;;8.99;41.06
11172;BME280;5642;50.830;12.082;2024-01-15T13:18:46;97552.31;;;9.39;40.88
11172;BME280;5642;50.830;12.082;2024-01-15T13:21:13;97554.69;;;9.28;41.24
11172;BME280;5642;50.830;12.082;2024-01-15T13:23:44;97556.63;;;9.24;41.25
11172;BME280;5642;50.830;12.082;2024-01-15T13:26:14;97573.91;;;9.27;40.92
11172;BME280;5642;50.830;12.082;2024-01-15T13:28:41;97563.94;;;9.18;41.22
11172;BME280;5642;50.830;12.082;2024-01-15T13:31:22;97563.97;;;9.02;41.53
11172;BME280;5642;50.830;12.082;2024-01-15T13:33:53;97559.56;;;9.02;41.32
11172;BME280;5642;50.830;12.082;2024-01-15T13:36:22;97523.25;;;8.82;41.50
11172;BME280;5642;50.830;12.082;2024-01-15T13:39:07;97559.16;;;8.94;41.10
11172;BME280;5642;50.830;12.082;2024-01-15T13:41:36;97579.88;;;8.97;41.28
11172;BME280;5642;50.830;12.082;2024-01-15T13:44:05;97577.34;;;8.96;41.30
11172;BME280;5642;50.830;12.082;2024-01-15T13:46:51;97588.88;;;8.92;41.24
11172;BME280;5642;50.830;12.082;2024-01-15T13:49:34;97517.56;;;8.43;41.57
11172;BME280;5642;50.830;12.082;2024-01-15T13:52:13;97549.13;;;8.38;41.90
11172;BME280;5642;50.830;12.082;2024-01-15T13:54:42;97513.06;;;8.12;41.49
11172;BME280;5642;50.830;12.082;2024-01-15T13:57:10;97612.03;;;8.49;41.57